Time;durP1;ratioP1;P1;durP2;ratioP2;P2;SDS_P1;SDS_P2;PMS_P1;PMS_P2;Temp;Humidity;BMP_temperature;BMP_pressure;BME280_temperature;BME280_humidity;BME280_pressure;Samples;Min_cycle;Max_cycle;Signal;HPM_P1;HPM_P2
2022/09/20 00:01:36;;;;;;;11.40;4.40;;;;;;;;;;5046977;28;20421;-82
2022/09/20 00:04:05;;;;;;;9.60;4.00;;;;;;;;;;5045048;28;20441;-83
2022/09/20 00:06:32;;;;;;;12.60;4.78;;;;;;;;;;5045082;28;20409;-82
2022/09/20 00:09:00;;;;;;;12.57;4.57;;;;;;;;;;5046550;28;20787;-82
2022/09/20 00:11:29;;;;;;;14.63;5.78;;;;;;;;;;5045397;28;20956;-82
2022/09/20 00:13:57;;;;;;;13.57;5.20;;;;;;;;;;5047643;28;21093;-82
2022/09/20 00:16:24;;;;;;;11.75;5.80;;;;;;;;;;5045609;28;20409;-82
2022/09/20 00:18:51;;;;;;;14.97;5.70;;;;;;;;;;5046081;28;20450;-82
2022/09/20 00:21:19;;;;;;;10.95;4.88;;;;;;;;;;5042753;28;20880;-81
2022/09/20 00:23:45;;;;;;;11.38;4.82;;;;;;;;;;5046964;28;20419;-82
2022/09/20 00:26:12;;;;;;;12.82;4.38;;;;;;;;;;5042602;28;20421;-82
2022/09/20 00:28:41;;;;;;;13.18;3.88;;;;;;;;;;5047171;28;20410;-82
2022/09/20 00:31:07;;;;;;;11.88;4.50;;;;;;;;;;5045815;28;20429;-82
2022/09/20 00:36:18;;;;;;;8.98;4.60;;;;;;;;;;5044164;28;20408;-82
2022/09/20 00:38:44;;;;;;;7.38;4.47;;;;;;;;;;5044162;28;20427;-83
2022/09/20 00:41:11;;;;;;;11.68;4.70;;;;;;;;;;5044974;28;20435;-82
2022/09/20 00:43:38;;;;;;;9.82;4.05;;;;;;;;;;5045812;28;20449;-82
2022/09/20 00:46:15;;;;;;;10.10;3.88;;;;;;;;;;5048043;28;20433;-83
2022/09/20 00:48:42;;;;;;;13.10;4.30;;;;;;;;;;5046531;28;20429;-85
2022/09/20 00:51:11;;;;;;;8.65;3.80;;;;;;;;;;5044476;28;20430;-82
2022/09/20 00:53:39;;;;;;;5.05;2.90;;;;;;;;;;5047200;28;20442;-82
2022/09/20 00:56:09;;;;;;;5.68;2.10;;;;;;;;;;5045898;28;20432;-82
2022/09/20 00:58:37;;;;;;;6.45;2.30;;;;;;;;;;5044827;28;20495;-82
2022/09/20 01:01:04;;;;;;;6.70;2.10;;;;;;;;;;5045199;28;20436;-82
2022/09/20 01:03:33;;;;;;;4.07;1.88;;;;;;;;;;5044966;28;20427;-82
2022/09/20 01:06:02;;;;;;;6.55;1.70;;;;;;;;;;5045376;28;20474;-82
2022/09/20 01:08:29;;;;;;;6.43;1.90;;;;;;;;;;5046221;28;20499;-82
2022/09/20 01:10:56;;;;;;;7.72;1.60;;;;;;;;;;5044224;28;20436;-82
2022/09/20 01:13:22;;;;;;;3.15;1.13;;;;;;;;;;5048264;28;20421;-82
2022/09/20 01:15:49;;;;;;;5.13;1.20;;;;;;;;;;5047520;28;20782;-82
2022/09/20 01:18:16;;;;;;;3.80;1.23;;;;;;;;;;5044986;28;20429;-83
2022/09/20 01:20:44;;;;;;;7.03;1.98;;;;;;;;;;5047163;28;20437;-82
2022/09/20 01:23:16;;;;;;;6.20;1.80;;;;;;;;;;5042044;28;20429;-82
2022/09/20 01:25:57;;;;;;;4.50;1.50;;;;;;;;;;5045694;28;20815;-83
2022/09/20 01:28:26;;;;;;;6.38;1.60;;;;;;;;;;5011324;28;20419;-82
2022/09/20 01:30:58;;;;;;;4.18;1.13;;;;;;;;;;5041493;28;20437;-81
2022/09/20 01:33:28;;;;;;;5.63;1.60;;;;;;;;;;5063384;28;20487;-82
2022/09/20 01:35:57;;;;;;;5.50;1.30;;;;;;;;;;5064497;28;20792;-82
2022/09/20 01:38:28;;;;;;;6.67;1.63;;;;;;;;;;5052473;28;20439;-83
2022/09/20 01:40:57;;;;;;;6.25;1.60;;;;;;;;;;5063820;28;20428;-82
2022/09/20 01:43:29;;;;;;;6.00;1.60;;;;;;;;;;5064773;28;20420;-82
2022/09/20 01:45:58;;;;;;;7.10;1.83;;;;;;;;;;5062976;28;20433;-82
2022/09/20 01:48:27;;;;;;;5.15;1.60;;;;;;;;;;5062996;28;20434;-82
2022/09/20 01:51:09;;;;;;;4.03;1.30;;;;;;;;;;5065333;28;20426;-82
2022/09/20 01:53:44;;;;;;;6.20;1.60;;;;;;;;;;5062339;28;20422;-82
2022/09/20 01:56:34;;;;;;;7.50;4.05;;;;;;;;;;5066205;28;20411;-82
2022/09/20 01:59:15;;;;;;;8.30;4.20;;;;;;;;;;5064182;28;20431;-84
2022/09/20 02:01:59;;;;;;;13.73;4.70;;;;;;;;;;5056081;28;20488;-82
2022/09/20 02:04:37;;;;;;;11.38;4.50;;;;;;;;;;5044381;28;20430;-82
2022/09/20 02:07:13;;;;;;;10.90;4.20;;;;;;;;;;5040823;28;20431;-83
2022/09/20 02:09:58;;;;;;;12.10;3.70;;;;;;;;;;5044772;28;20429;-82
2022/09/20 02:12:34;;;;;;;12.52;4.75;;;;;;;;;;5047603;28;20414;-82
2022/09/20 02:15:08;;;;;;;12.50;4.38;;;;;;;;;;5044741;28;20443;-82
2022/09/20 02:17:43;;;;;;;8.35;4.50;;;;;;;;;;5042813;28;20819;-82
2022/09/20 02:20:20;;;;;;;13.23;5.10;;;;;;;;;;5045815;28;20434;-83
2022/09/20 02:22:51;;;;;;;11.50;5.20;;;;;;;;;;5044113;28;20437;-82
2022/09/20 02:25:23;;;;;;;13.57;5.87;;;;;;;;;;5046765;28;21069;-83
2022/09/20 02:27:55;;;;;;;19.27;6.05;;;;;;;;;;5044690;28;20425;-82
2022/09/20 02:30:28;;;;;;;17.17;6.80;;;;;;;;;;5046397;28;20410;-82
2022/09/20 02:33:06;;;;;;;11.02;5.25;;;;;;;;;;5043213;28;20446;-82
2022/09/20 02:35:40;;;;;;;12.75;5.43;;;;;;;;;;5047709;28;20440;-83
2022/09/20 02:38:18;;;;;;;14.32;5.35;;;;;;;;;;5046299;28;20425;-83
2022/09/20 02:40:56;;;;;;;11.90;4.60;;;;;;;;;;5046058;28;20424;-83
2022/09/20 02:43:27;;;;;;;7.53;3.28;;;;;;;;;;5063983;28;20430;-83
2022/09/20 02:45:58;;;;;;;12.15;3.35;;;;;;;;;;5064981;28;20427;-82
2022/09/20 02:48:29;;;;;;;8.07;2.67;;;;;;;;;;5063370;28;20412;-82
2022/09/20 02:50:59;;;;;;;9.57;2.65;;;;;;;;;;5065046;28;20427;-83
2022/09/20 02:53:32;;;;;;;11.38;2.80;;;;;;;;;;5065109;28;20485;-82
2022/09/20 02:56:02;;;;;;;10.32;3.00;;;;;;;;;;5063148;28;20431;-83
2022/09/20 02:58:33;;;;;;;13.75;3.10;;;;;;;;;;5064643;28;20438;-83
2022/09/20 03:01:03;;;;;;;9.63;3.33;;;;;;;;;;5065382;28;20413;-83
2022/09/20 03:03:36;;;;;;;11.73;2.90;;;;;;;;;;5045834;28;20433;-81
2022/09/20 03:06:07;;;;;;;11.00;2.90;;;;;;;;;;5044553;28;20435;-83
2022/09/20 03:08:35;;;;;;;10.82;2.95;;;;;;;;;;5046975;28;20419;-81
2022/09/20 03:11:04;;;;;;;8.63;2.70;;;;;;;;;;5046694;28;20445;-80
2022/09/20 03:13:43;;;;;;;6.97;2.80;;;;;;;;;;5048606;28;20425;-81
2022/09/20 03:16:16;;;;;;;9.35;3.13;;;;;;;;;;5044038;28;20431;-81
2022/09/20 03:18:49;;;;;;;13.57;4.65;;;;;;;;;;5046202;28;20461;-81
2022/09/20 03:21:25;;;;;;;12.20;4.60;;;;;;;;;;5044190;28;20421;-81
2022/09/20 03:23:57;;;;;;;11.18;3.88;;;;;;;;;;5044940;28;20845;-81
2022/09/20 03:26:31;;;;;;;13.45;3.85;;;;;;;;;;5041777;28;20413;-81
2022/09/20 03:29:02;;;;;;;10.52;3.58;;;;;;;;;;5044087;28;20421;-81
2022/09/20 03:31:46;;;;;;;9.65;3.15;;;;;;;;;;5043882;28;20409;-81
2022/09/20 03:34:19;;;;;;;9.95;3.05;;;;;;;;;;5043045;28;20454;-82
2022/09/20 03:36:53;;;;;;;12.90;3.80;;;;;;;;;;5045475;28;20419;-82
2022/09/20 03:39:34;;;;;;;9.13;2.63;;;;;;;;;;5041138;28;20456;-81
2022/09/20 03:42:09;;;;;;;12.60;2.97;;;;;;;;;;5042182;28;20567;-83
2022/09/20 03:44:57;;;;;;;10.80;3.10;;;;;;;;;;5041493;28;20426;-81
2022/09/20 03:47:31;;;;;;;11.57;2.80;;;;;;;;;;5034991;28;20838;-83
2022/09/20 03:50:13;;;;;;;10.52;3.40;;;;;;;;;;5043889;28;20457;-83
2022/09/20 03:52:56;;;;;;;9.52;2.80;;;;;;;;;;5039326;28;20917;-81
2022/09/20 03:55:41;;;;;;;8.85;2.92;;;;;;;;;;5042712;28;20452;-84
2022/09/20 03:58:16;;;;;;;11.65;3.50;;;;;;;;;;5041671;28;20431;-83
2022/09/20 04:00:50;;;;;;;11.60;4.47;;;;;;;;;;5044917;28;20448;-82
2022/09/20 04:03:33;;;;;;;10.07;4.80;;;;;;;;;;5043404;28;20432;-82
2022/09/20 04:06:04;;;;;;;14.30;4.82;;;;;;;;;;5041725;28;20951;-84
2022/09/20 04:08:40;;;;;;;15.25;5.22;;;;;;;;;;5041257;28;21214;-83
2022/09/20 04:11:10;;;;;;;13.70;5.87;;;;;;;;;;5043666;28;20443;-82
2022/09/20 04:13:38;;;;;;;12.83;5.70;;;;;;;;;;5042896;28;20429;-83
2022/09/20 04:16:16;;;;;;;12.18;5.10;;;;;;;;;;5045316;28;20437;-83
2022/09/20 04:18:45;;;;;;;13.48;5.13;;;;;;;;;;5041194;28;20432;-83
2022/09/20 04:21:16;;;;;;;15.55;5.88;;;;;;;;;;5041367;28;20431;-83
2022/09/20 04:23:47;;;;;;;14.83;6.50;;;;;;;;;;5038989;28;20466;-82
2022/09/20 04:26:15;;;;;;;11.68;5.30;;;;;;;;;;5041489;28;20961;-82
2022/09/20 04:28:46;;;;;;;15.93;6.13;;;;;;;;;;5041070;28;20433;-83
2022/09/20 04:31:17;;;;;;;18.45;6.70;;;;;;;;;;5039566;28;20427;-83
2022/09/20 04:33:47;;;;;;;11.65;5.40;;;;;;;;;;5039761;28;20429;-83
2022/09/20 04:36:28;;;;;;;12.97;4.90;;;;;;;;;;5037412;28;20430;-83
2022/09/20 04:39:00;;;;;;;13.00;4.60;;;;;;;;;;5040911;28;20417;-82
2022/09/20 04:41:48;;;;;;;14.30;4.75;;;;;;;;;;5041218;28;21815;-82
2022/09/20 04:44:26;;;;;;;12.10;4.15;;;;;;;;;;5042529;28;20413;-82
2022/09/20 04:47:07;;;;;;;14.57;3.90;;;;;;;;;;5043235;28;20442;-82
2022/09/20 04:49:47;;;;;;;12.43;3.65;;;;;;;;;;5041965;28;20448;-82
2022/09/20 04:52:33;;;;;;;12.90;4.10;;;;;;;;;;5038614;28;20425;-83
2022/09/20 04:55:15;;;;;;;10.80;3.90;;;;;;;;;;5041238;28;20929;-82
2022/09/20 04:57:55;;;;;;;15.20;4.38;;;;;;;;;;5040775;28;20806;-82
2022/09/20 05:00:22;;;;;;;20.30;9.65;;;;;;;;;;5042530;28;20440;-82
2022/09/20 05:03:12;;;;;;;17.92;8.38;;;;;;;;;;5041063;28;20442;-81
2022/09/20 05:05:50;;;;;;;16.00;9.20;;;;;;;;;;5042454;28;20447;-80
2022/09/20 05:08:35;;;;;;;17.35;10.55;;;;;;;;;;5040032;28;20423;-82
2022/09/20 05:11:22;;;;;;;21.27;10.90;;;;;;;;;;5039656;28;20434;-82
2022/09/20 05:14:07;;;;;;;19.77;11.57;;;;;;;;;;5039371;28;20470;-82
2022/09/20 05:16:45;;;;;;;26.80;12.77;;;;;;;;;;5037072;28;20422;-83
2022/09/20 05:19:17;;;;;;;19.83;12.73;;;;;;;;;;5039580;28;20524;-82
2022/09/20 05:22:02;;;;;;;25.35;14.70;;;;;;;;;;5037121;28;20525;-83
2022/09/20 05:24:37;;;;;;;26.10;14.15;;;;;;;;;;5040833;28;20809;-83
2022/09/20 05:27:10;;;;;;;25.73;13.90;;;;;;;;;;5040631;28;20429;-83
2022/09/20 05:29:41;;;;;;;26.13;15.57;;;;;;;;;;5041847;28;20436;-83
2022/09/20 05:32:17;;;;;;;21.93;13.23;;;;;;;;;;5042743;28;20886;-82
2022/09/20 05:34:46;;;;;;;22.83;12.15;;;;;;;;;;5041378;28;20831;-83
2022/09/20 05:37:17;;;;;;;18.40;11.30;;;;;;;;;;5040826;28;20417;-81
2022/09/20 05:39:46;;;;;;;23.67;12.23;;;;;;;;;;5041489;28;20429;-82
2022/09/20 05:42:17;;;;;;;20.77;11.85;;;;;;;;;;5041491;28;20439;-81
2022/09/20 05:44:59;;;;;;;18.35;11.40;;;;;;;;;;5042464;28;20826;-81
2022/09/20 05:47:34;;;;;;;19.98;12.85;;;;;;;;;;5041483;28;20429;-83
2022/09/20 05:50:09;;;;;;;20.55;11.80;;;;;;;;;;5043541;28;20427;-83
2022/09/20 05:52:44;;;;;;;22.60;12.07;;;;;;;;;;5039587;28;20433;-83
2022/09/20 05:55:35;;;;;;;17.88;12.30;;;;;;;;;;5042353;28;20426;-83
2022/09/20 05:58:16;;;;;;;22.90;12.43;;;;;;;;;;5026213;28;20498;-83
2022/09/20 06:00:45;;;;;;;19.42;12.23;;;;;;;;;;5038839;28;20438;-82
2022/09/20 06:03:16;;;;;;;20.85;12.75;;;;;;;;;;5044077;28;20440;-83
2022/09/20 06:05:47;;;;;;;22.23;12.52;;;;;;;;;;5042996;28;20789;-83
2022/09/20 06:08:21;;;;;;;19.10;11.85;;;;;;;;;;5043332;28;20438;-83
2022/09/20 06:11:03;;;;;;;22.67;12.98;;;;;;;;;;5041570;28;20433;-83
2022/09/20 06:13:42;;;;;;;20.08;14.05;;;;;;;;;;5041971;28;20790;-83
2022/09/20 06:16:12;;;;;;;19.43;10.23;;;;;;;;;;5041616;28;20515;-82
2022/09/20 06:18:43;;;;;;;21.00;10.50;;;;;;;;;;5041514;28;20417;-82
2022/09/20 06:21:16;;;;;;;16.45;10.05;;;;;;;;;;5035553;28;20792;-82
2022/09/20 06:23:43;;;;;;;21.08;11.20;;;;;;;;;;5041566;28;20443;-83
2022/09/20 06:26:13;;;;;;;14.35;9.38;;;;;;;;;;5041448;28;20440;-83
2022/09/20 06:28:41;;;;;;;19.92;8.13;;;;;;;;;;5043204;28;20453;-84
2022/09/20 06:31:09;;;;;;;14.60;7.03;;;;;;;;;;5041694;28;20429;-81
2022/09/20 06:33:43;;;;;;;11.07;4.50;;;;;;;;;;5040802;28;20434;-81
2022/09/20 06:41:43;;;;;;;11.52;4.40;;;;;;;;;;5041885;28;21052;-80
2022/09/20 06:44:10;;;;;;;12.05;4.65;;;;;;;;;;5039156;28;20434;-81
2022/09/20 06:46:37;;;;;;;13.00;4.60;;;;;;;;;;5041611;28;20432;-81
2022/09/20 06:49:07;;;;;;;9.40;4.60;;;;;;;;;;5038636;28;20866;-82
2022/09/20 06:51:35;;;;;;;12.83;5.40;;;;;;;;;;5041479;28;20429;-81
2022/09/20 06:54:01;;;;;;;9.98;4.20;;;;;;;;;;5042943;28;20492;-80
2022/09/20 06:56:29;;;;;;;11.02;5.63;;;;;;;;;;5043265;28;20444;-81
2022/09/20 06:58:56;;;;;;;11.67;5.43;;;;;;;;;;5043520;28;20481;-81
2022/09/20 07:01:22;;;;;;;17.63;7.10;;;;;;;;;;5040558;28;20817;-80
2022/09/20 07:03:49;;;;;;;12.73;6.60;;;;;;;;;;5040668;28;20480;-81
2022/09/20 07:06:18;;;;;;;15.98;6.78;;;;;;;;;;5042540;28;20435;-81
2022/09/20 07:08:45;;;;;;;12.57;6.40;;;;;;;;;;5040384;28;20425;-82
2022/09/20 07:11:12;;;;;;;13.55;5.93;;;;;;;;;;5039659;28;20841;-81
2022/09/20 07:13:39;;;;;;;16.23;6.07;;;;;;;;;;5038465;28;20433;-81
2022/09/20 07:16:07;;;;;;;18.13;6.53;;;;;;;;;;5043009;28;20441;-81
2022/09/20 07:18:35;;;;;;;11.82;5.50;;;;;;;;;;5039544;28;20802;-81
2022/09/20 07:21:01;;;;;;;15.18;6.20;;;;;;;;;;5039141;28;20436;-81
2022/09/20 07:23:30;;;;;;;13.25;5.70;;;;;;;;;;5042206;28;20429;-79
2022/09/20 07:25:59;;;;;;;14.32;6.00;;;;;;;;;;5039319;28;20457;-83
2022/09/20 07:28:27;;;;;;;12.30;5.57;;;;;;;;;;5040785;28;20925;-82
2022/09/20 07:30:54;;;;;;;14.20;6.63;;;;;;;;;;5040822;28;20419;-84
2022/09/20 07:33:23;;;;;;;11.95;7.03;;;;;;;;;;5042417;28;20425;-83
2022/09/20 07:35:53;;;;;;;13.65;6.47;;;;;;;;;;5038840;28;20473;-80
2022/09/20 07:38:19;;;;;;;13.53;6.33;;;;;;;;;;5040240;28;20446;-80
2022/09/20 07:40:54;;;;;;;13.52;6.60;;;;;;;;;;5041527;28;20443;-81
2022/09/20 07:43:21;;;;;;;9.60;5.68;;;;;;;;;;5041270;28;20500;-81
2022/09/20 07:45:51;;;;;;;14.38;5.88;;;;;;;;;;5041652;28;20469;-82
2022/09/20 07:48:17;;;;;;;12.02;5.78;;;;;;;;;;5040897;28;20525;-81
2022/09/20 07:50:50;;;;;;;10.37;4.30;;;;;;;;;;5040733;28;20433;-82
2022/09/20 07:53:17;;;;;;;8.75;3.58;;;;;;;;;;5042355;28;20453;-81
2022/09/20 07:55:43;;;;;;;8.98;3.17;;;;;;;;;;5042306;28;20442;-81
2022/09/20 07:58:11;;;;;;;9.95;3.60;;;;;;;;;;5040608;28;20993;-81
2022/09/20 08:00:38;;;;;;;7.30;3.27;;;;;;;;;;5040559;28;20433;-81
2022/09/20 08:03:04;;;;;;;10.10;2.65;;;;;;;;;;5042589;28;20437;-81
2022/09/20 08:05:31;;;;;;;10.73;2.70;;;;;;;;;;5042593;28;20803;-80
2022/09/20 08:07:59;;;;;;;10.97;2.67;;;;;;;;;;5044357;28;20436;-82
2022/09/20 08:10:26;;;;;;;7.15;2.70;;;;;;;;;;5042120;28;21095;-81
2022/09/20 08:12:53;;;;;;;7.47;2.58;;;;;;;;;;5039611;28;20441;-81
2022/09/20 08:15:21;;;;;;;7.28;2.20;;;;;;;;;;5038766;28;20829;-81
2022/09/20 08:17:48;;;;;;;6.78;2.50;;;;;;;;;;5041527;28;20437;-81
2022/09/20 08:20:14;;;;;;;8.10;2.80;;;;;;;;;;5041169;28;20435;-80
2022/09/20 08:22:42;;;;;;;6.53;2.90;;;;;;;;;;5044683;28;21025;-81
2022/09/20 08:25:08;;;;;;;6.10;2.40;;;;;;;;;;5045020;28;21008;-81
2022/09/20 08:27:36;;;;;;;6.47;2.20;;;;;;;;;;5042566;28;20434;-82
2022/09/20 08:30:02;;;;;;;4.25;2.13;;;;;;;;;;5043644;28;20504;-85
2022/09/20 08:32:31;;;;;;;6.22;2.30;;;;;;;;;;5055042;28;20423;-82
2022/09/20 08:34:58;;;;;;;6.53;2.00;;;;;;;;;;5038776;28;20444;-86
2022/09/20 08:37:25;;;;;;;6.80;2.50;;;;;;;;;;5042011;28;20425;-83
2022/09/20 08:39:51;;;;;;;6.95;1.90;;;;;;;;;;5040879;28;20434;-83
2022/09/20 08:42:24;;;;;;;7.72;2.10;;;;;;;;;;5040666;28;20432;-82
2022/09/20 08:44:52;;;;;;;8.63;2.10;;;;;;;;;;5040158;28;20445;-82
2022/09/20 08:47:21;;;;;;;8.67;2.07;;;;;;;;;;5041531;28;20478;-82
2022/09/20 08:49:52;;;;;;;7.05;2.13;;;;;;;;;;5041816;28;20438;-84
2022/09/20 08:52:21;;;;;;;5.70;1.80;;;;;;;;;;5039398;28;20431;-82
2022/09/20 08:54:47;;;;;;;7.77;2.30;;;;;;;;;;5043498;28;20441;-82
2022/09/20 08:57:15;;;;;;;6.55;1.98;;;;;;;;;;5041100;28;20429;-83
2022/09/20 08:59:41;;;;;;;6.05;1.90;;;;;;;;;;5039843;28;20431;-82
2022/09/20 09:02:12;;;;;;;3.17;1.92;;;;;;;;;;5041948;28;20445;-83
2022/09/20 09:04:39;;;;;;;5.20;1.77;;;;;;;;;;5042159;28;20424;-82
2022/09/20 09:07:07;;;;;;;7.68;2.10;;;;;;;;;;5045846;28;20941;-82
2022/09/20 09:09:37;;;;;;;5.70;1.70;;;;;;;;;;5045019;28;20437;-82
2022/09/20 09:12:04;;;;;;;6.10;2.25;;;;;;;;;;5044440;28;20433;-81
2022/09/20 09:14:53;;;;;;;4.38;1.90;;;;;;;;;;5045524;28;20432;-81
2022/09/20 09:17:21;;;;;;;6.53;2.30;;;;;;;;;;5064178;28;20431;-81
2022/09/20 09:19:48;;;;;;;7.32;2.35;;;;;;;;;;5064624;28;20437;-81
2022/09/20 09:22:20;;;;;;;6.50;2.40;;;;;;;;;;5043236;28;20575;-81
2022/09/20 09:25:05;;;;;;;4.93;2.30;;;;;;;;;;5043038;28;20438;-82
2022/09/20 09:27:32;;;;;;;3.05;1.20;;;;;;;;;;5063250;28;20416;-83
2022/09/20 09:29:58;;;;;;;4.10;1.70;;;;;;;;;;5064483;28;20433;-81
2022/09/20 09:32:27;;;;;;;6.15;2.00;;;;;;;;;;5066062;28;20518;-82
2022/09/20 09:34:54;;;;;;;8.23;2.50;;;;;;;;;;5059925;28;20526;-82
2022/09/20 09:37:24;;;;;;;7.57;2.30;;;;;;;;;;5063254;28;20880;-83
2022/09/20 09:40:05;;;;;;;6.10;1.85;;;;;;;;;;5063589;28;20429;-80
2022/09/20 09:42:32;;;;;;;7.70;2.00;;;;;;;;;;5041011;28;20440;-83
2022/09/20 09:45:10;;;;;;;5.07;1.70;;;;;;;;;;5044117;28;20437;-82
2022/09/20 09:47:37;;;;;;;7.57;1.70;;;;;;;;;;5041951;28;20433;-83
2022/09/20 09:50:03;;;;;;;6.43;1.70;;;;;;;;;;5043072;28;20914;-84
2022/09/20 09:52:32;;;;;;;5.20;1.80;;;;;;;;;;5044507;28;20927;-81
2022/09/20 09:54:59;;;;;;;4.23;1.20;;;;;;;;;;5043483;28;20482;-82
2022/09/20 09:57:31;;;;;;;7.45;2.00;;;;;;;;;;5044130;28;20422;-83
2022/09/20 10:00:04;;;;;;;4.03;1.70;;;;;;;;;;5044474;28;20465;-84
2022/09/20 10:03:01;;;;;;;7.80;1.67;;;;;;;;;;5043764;28;20417;-80
2022/09/20 10:05:29;;;;;;;7.28;2.08;;;;;;;;;;4981822;28;20422;-81
2022/09/20 10:08:02;;;;;;;3.88;1.67;;;;;;;;;;5029478;28;20430;-80
2022/09/20 10:10:33;;;;;;;4.13;1.50;;;;;;;;;;5043022;28;20411;-83
2022/09/20 10:13:05;;;;;;;5.80;1.60;;;;;;;;;;5042019;28;21219;-82
2022/09/20 10:15:34;;;;;;;3.15;1.80;;;;;;;;;;5043987;28;20425;-83
2022/09/20 10:18:12;;;;;;;3.50;1.40;;;;;;;;;;5040559;28;20429;-82
2022/09/20 10:20:45;;;;;;;5.78;2.13;;;;;;;;;;5043908;28;20442;-83
2022/09/20 10:23:20;;;;;;;6.18;1.75;;;;;;;;;;5044155;28;20792;-83
2022/09/20 10:25:50;;;;;;;5.83;1.63;;;;;;;;;;5040143;28;20799;-84
2022/09/20 10:28:27;;;;;;;5.20;2.10;;;;;;;;;;5042378;28;20437;-82
2022/09/20 10:31:00;;;;;;;3.80;2.00;;;;;;;;;;5042028;28;20431;-84
2022/09/20 10:33:33;;;;;;;5.88;1.80;;;;;;;;;;5041724;28;20442;-81
2022/09/20 10:36:05;;;;;;;5.57;1.63;;;;;;;;;;5041289;28;20422;-81
2022/09/20 10:38:35;;;;;;;5.68;1.90;;;;;;;;;;5039300;28;20425;-80
2022/09/20 10:44:00;;;;;;;5.82;1.63;;;;;;;;;;5042498;28;20426;-83
2022/09/20 10:46:31;;;;;;;7.10;1.90;;;;;;;;;;5042362;28;20431;-80
2022/09/20 10:49:13;;;;;;;2.80;1.30;;;;;;;;;;5042868;28;20441;-81
2022/09/20 10:51:46;;;;;;;5.97;1.50;;;;;;;;;;5044229;28;20915;-80
2022/09/20 10:54:22;;;;;;;4.05;1.20;;;;;;;;;;5043311;28;20784;-81
2022/09/20 10:56:50;;;;;;;3.50;1.40;;;;;;;;;;5042714;28;20433;-80
2022/09/20 10:59:22;;;;;;;5.90;1.33;;;;;;;;;;5045939;28;20427;-81
2022/09/20 11:01:58;;;;;;;5.03;1.40;;;;;;;;;;5046566;28;20423;-81
2022/09/20 11:04:31;;;;;;;4.68;1.30;;;;;;;;;;5046836;28;20435;-81
2022/09/20 11:07:02;;;;;;;4.13;1.40;;;;;;;;;;5048181;28;20428;-83
2022/09/20 11:09:33;;;;;;;4.50;1.48;;;;;;;;;;5045626;28;20427;-82
2022/09/20 11:12:03;;;;;;;4.30;1.35;;;;;;;;;;5044259;28;20423;-83
2022/09/20 11:14:33;;;;;;;3.33;1.10;;;;;;;;;;5043856;28;20434;-83
2022/09/20 11:17:02;;;;;;;4.30;1.40;;;;;;;;;;5046044;28;20422;-81
2022/09/20 11:19:33;;;;;;;3.95;1.60;;;;;;;;;;5045548;28;20437;-81
2022/09/20 11:22:04;;;;;;;4.53;1.60;;;;;;;;;;5045842;28;20429;-81
2022/09/20 11:24:35;;;;;;;4.65;1.42;;;;;;;;;;5046866;28;20428;-81
2022/09/20 11:27:04;;;;;;;5.20;1.17;;;;;;;;;;5046931;28;20435;-80
2022/09/20 11:29:33;;;;;;;2.83;1.27;;;;;;;;;;5044144;28;20431;-82
2022/09/20 11:32:02;;;;;;;4.03;1.52;;;;;;;;;;5045557;28;20430;-82
2022/09/20 11:34:30;;;;;;;7.40;2.30;;;;;;;;;;5046004;28;20439;-81
2022/09/20 11:36:57;;;;;;;3.92;1.70;;;;;;;;;;5044272;28;20512;-81
2022/09/20 11:39:27;;;;;;;3.40;1.52;;;;;;;;;;5047251;28;20928;-81
2022/09/20 11:41:58;;;;;;;5.55;1.42;;;;;;;;;;5046348;28;20433;-81
2022/09/20 11:44:25;;;;;;;3.88;1.40;;;;;;;;;;5042013;28;20958;-81
2022/09/20 11:46:54;;;;;;;5.70;1.60;;;;;;;;;;5044546;28;20422;-80
2022/09/20 11:49:23;;;;;;;3.78;1.52;;;;;;;;;;5048538;28;20425;-82
2022/09/20 11:52:00;;;;;;;5.72;1.90;;;;;;;;;;5044073;28;21007;-81
2022/09/20 11:54:39;;;;;;;2.95;1.30;;;;;;;;;;5042807;28;20942;-85
2022/09/20 11:57:12;;;;;;;2.85;1.05;;;;;;;;;;5043105;28;20504;-81
2022/09/20 11:59:41;;;;;;;4.10;1.30;;;;;;;;;;5043348;28;20510;-82
2022/09/20 12:02:17;;;;;;;4.20;1.38;;;;;;;;;;5042462;28;20844;-81
2022/09/20 12:04:44;;;;;;;1.70;1.00;;;;;;;;;;5041635;28;20440;-82
2022/09/20 12:07:16;;;;;;;2.75;1.20;;;;;;;;;;5040788;28;20425;-82
2022/09/20 12:09:44;;;;;;;2.60;1.40;;;;;;;;;;5043559;28;20459;-82
2022/09/20 12:12:19;;;;;;;4.40;1.20;;;;;;;;;;5039653;28;21074;-82
2022/09/20 12:14:53;;;;;;;3.65;1.30;;;;;;;;;;5042061;28;20483;-82
2022/09/20 12:17:38;;;;;;;3.37;1.10;;;;;;;;;;5040034;28;20433;-81
2022/09/20 12:20:19;;;;;;;3.85;1.23;;;;;;;;;;5044825;28;20513;-82
2022/09/20 12:22:46;;;;;;;5.90;1.60;;;;;;;;;;5060002;28;20431;-81
2022/09/20 12:25:35;;;;;;;3.55;1.60;;;;;;;;;;5058799;28;20880;-81
2022/09/20 12:28:04;;;;;;;4.75;1.20;;;;;;;;;;5041726;28;20434;-80
2022/09/20 12:30:32;;;;;;;3.57;1.43;;;;;;;;;;5040474;28;20526;-81
2022/09/20 12:32:59;;;;;;;3.05;1.13;;;;;;;;;;5042345;28;20474;-84
2022/09/20 12:35:59;;;;;;;3.40;1.20;;;;;;;;;;5043142;28;20524;-83
2022/09/20 12:38:33;;;;;;;6.25;1.40;;;;;;;;;;5043419;28;20491;-82
2022/09/20 12:41:04;;;;;;;3.40;1.20;;;;;;;;;;5041839;28;20425;-82
2022/09/20 12:43:33;;;;;;;3.23;1.20;;;;;;;;;;5041689;28;20430;-81
2022/09/20 12:46:00;;;;;;;3.03;1.50;;;;;;;;;;5043669;28;20437;-82
2022/09/20 12:48:28;;;;;;;6.18;1.40;;;;;;;;;;5041367;28;20436;-84
2022/09/20 12:53:58;;;;;;;4.97;1.52;;;;;;;;;;5042108;28;20438;-83
2022/09/20 12:56:26;;;;;;;4.00;1.30;;;;;;;;;;5039455;28;20431;-82
2022/09/20 12:58:55;;;;;;;4.05;1.70;;;;;;;;;;5041675;28;20475;-81
2022/09/20 13:01:29;;;;;;;6.55;1.58;;;;;;;;;;5038954;28;20802;-86
2022/09/20 13:04:11;;;;;;;3.83;1.40;;;;;;;;;;5040384;28;20932;-83
2022/09/20 13:06:38;;;;;;;2.60;1.20;;;;;;;;;;5038827;28;20426;-82
2022/09/20 13:09:07;;;;;;;4.70;1.40;;;;;;;;;;5039223;28;20436;-82
2022/09/20 13:11:38;;;;;;;6.25;1.30;;;;;;;;;;5039272;28;20559;-83
2022/09/20 13:14:12;;;;;;;4.20;1.50;;;;;;;;;;5038636;28;20423;-82
2022/09/20 13:16:44;;;;;;;8.45;1.60;;;;;;;;;;5042559;28;20479;-82
2022/09/20 13:19:15;;;;;;;5.90;1.25;;;;;;;;;;5039971;28;20433;-83
2022/09/20 13:21:47;;;;;;;6.18;1.75;;;;;;;;;;5038570;28;20434;-82
2022/09/20 13:24:16;;;;;;;6.60;1.50;;;;;;;;;;5041201;28;20924;-83
2022/09/20 13:26:45;;;;;;;5.45;1.90;;;;;;;;;;5037219;28;20434;-83
2022/09/20 13:29:23;;;;;;;10.38;1.80;;;;;;;;;;5037957;28;20435;-82
2022/09/20 13:31:49;;;;;;;9.00;1.70;;;;;;;;;;5039059;28;20433;-84
2022/09/20 13:34:20;;;;;;;8.00;1.80;;;;;;;;;;5039932;28;20441;-82
2022/09/20 13:36:47;;;;;;;6.10;1.60;;;;;;;;;;5041009;28;20479;-84
2022/09/20 13:39:23;;;;;;;5.05;1.60;;;;;;;;;;5045043;28;20425;-84
2022/09/20 13:41:50;;;;;;;4.35;1.00;;;;;;;;;;5045160;28;20417;-86
2022/09/20 13:44:17;;;;;;;6.95;1.92;;;;;;;;;;5044587;28;20437;-85
2022/09/20 13:46:45;;;;;;;4.88;1.40;;;;;;;;;;5045020;28;20435;-82
2022/09/20 13:49:19;;;;;;;6.18;1.52;;;;;;;;;;5044434;28;20437;-85
2022/09/20 13:51:47;;;;;;;2.90;1.30;;;;;;;;;;5041446;28;20875;-84
2022/09/20 13:54:28;;;;;;;5.80;1.30;;;;;;;;;;5041804;28;20494;-85
2022/09/20 13:56:56;;;;;;;3.28;1.35;;;;;;;;;;5043504;28;20456;-84
2022/09/20 13:59:23;;;;;;;6.72;1.70;;;;;;;;;;5045880;28;20442;-82
2022/09/20 14:01:51;;;;;;;4.25;1.30;;;;;;;;;;5042690;28;20430;-82
2022/09/20 14:04:20;;;;;;;5.50;1.38;;;;;;;;;;5044937;28;20438;-84
2022/09/20 14:06:47;;;;;;;5.90;1.60;;;;;;;;;;5045691;28;20526;-85
2022/09/20 14:09:20;;;;;;;4.20;1.63;;;;;;;;;;5043091;28;20497;-84
2022/09/20 14:11:47;;;;;;;4.25;1.25;;;;;;;;;;5042288;28;20425;-83
2022/09/20 14:14:14;;;;;;;7.05;1.70;;;;;;;;;;5043522;28;20469;-82
2022/09/20 14:16:45;;;;;;;3.67;1.20;;;;;;;;;;5044461;28;20435;-82
2022/09/20 14:19:14;;;;;;;5.70;1.02;;;;;;;;;;5042241;28;20427;-82
2022/09/20 14:21:42;;;;;;;5.25;1.20;;;;;;;;;;5043188;28;20508;-83
2022/09/20 14:24:24;;;;;;;5.97;1.60;;;;;;;;;;5048365;28;20433;-82
2022/09/20 14:27:00;;;;;;;6.17;1.50;;;;;;;;;;5043049;28;20434;-81
2022/09/20 14:29:37;;;;;;;5.82;1.30;;;;;;;;;;5043863;28;20429;-84
2022/09/20 14:32:05;;;;;;;4.03;1.45;;;;;;;;;;5042772;28;20946;-81
2022/09/20 14:34:35;;;;;;;4.93;1.30;;;;;;;;;;5041079;28;20429;-83
2022/09/20 14:37:05;;;;;;;4.05;1.00;;;;;;;;;;5044393;28;20426;-82
2022/09/20 14:39:32;;;;;;;5.10;1.30;;;;;;;;;;5041071;28;20443;-83
2022/09/20 14:41:59;;;;;;;5.20;1.40;;;;;;;;;;5042963;28;20425;-83
2022/09/20 14:44:30;;;;;;;5.20;1.50;;;;;;;;;;5043262;28;20445;-80
2022/09/20 14:46:58;;;;;;;5.93;1.60;;;;;;;;;;5041255;28;20500;-81
2022/09/20 14:49:32;;;;;;;7.63;1.98;;;;;;;;;;5047563;28;20514;-81
2022/09/20 14:52:16;;;;;;;5.22;1.80;;;;;;;;;;5044477;28;20982;-81
2022/09/20 14:54:57;;;;;;;6.20;1.70;;;;;;;;;;5032602;28;20433;-83
2022/09/20 14:57:24;;;;;;;5.90;1.58;;;;;;;;;;5042653;28;20439;-83
2022/09/20 14:59:54;;;;;;;7.85;1.85;;;;;;;;;;5045128;28;20423;-81
2022/09/20 15:02:20;;;;;;;5.73;1.60;;;;;;;;;;5041186;28;20431;-82
2022/09/20 15:04:53;;;;;;;7.10;1.80;;;;;;;;;;5044343;28;20428;-82
2022/09/20 15:07:19;;;;;;;5.32;1.50;;;;;;;;;;5045558;28;20421;-83
2022/09/20 15:09:47;;;;;;;6.35;1.80;;;;;;;;;;5044997;28;20903;-83
2022/09/20 15:12:14;;;;;;;6.17;1.50;;;;;;;;;;5039452;28;20506;-82
2022/09/20 15:14:41;;;;;;;6.20;1.50;;;;;;;;;;5044698;28;20417;-82
2022/09/20 15:17:10;;;;;;;5.47;1.48;;;;;;;;;;5044304;28;21007;-82